Little Valley, California
Current Conditions -  °F | °C
As of 4:55 AM on Tuesday 21 Oct 2014 (Local Time) from KAAT Reporting Station
Light Rain Light Rain  
Wind Chill: 40°   Ceiling: 2100
Heat Index: 40°   Visibility: 9mi
Dew Point: 38°   Wind: 3mph
Humidity: 93%   Direction: 290°WNW
Pressure: 30.06"   Gusts: NA
Location:  40.9954°N, 121.135°W
Report Text: KAAT 211155Z AUTO 29003KT 9SM -RA FEW015 BKN021 OVC028 04/03 A3006 RMK AO2 RAB1056E06B20 SLP173 P0002 60002 70027 T00440033 10050 20039 53010 $
Loading
Personal Weather Stations






























Interactive Weather Map New forecast layout! Learn more

10-Day Weather Forecast

Advertisements
Track Severe Weather on mobile